sensor_id;sensor_type;location;lat;lon;timestamp;temperature;humidity
62555;DHT22;48610;52.144;8.624;2023-02-28T00:01:18;1.40;99.90
62555;DHT22;48610;52.144;8.624;2023-02-28T00:04:19;1.20;99.90
62555;DHT22;48610;52.144;8.624;2023-02-28T00:07:19;1.20;99.90
62555;DHT22;48610;52.144;8.624;2023-02-28T00:10:25;1.20;99.90
62555;DHT22;48610;52.144;8.624;2023-02-28T00:13:26;1.30;99.90
62555;DHT22;48610;52.144;8.624;2023-02-28T00:16:27;1.20;99.90
62555;DHT22;48610;52.144;8.624;2023-02-28T00:19:27;1.30;99.90
62555;DHT22;48610;52.144;8.624;2023-02-28T00:22:28;1.20;99.90
62555;DHT22;48610;52.144;8.624;2023-02-28T00:25:29;1.20;99.90
62555;DHT22;48610;52.144;8.624;2023-02-28T00:28:29;1.20;99.90
62555;DHT22;48610;52.144;8.624;2023-02-28T00:31:30;1.10;99.90
62555;DHT22;48610;52.144;8.624;2023-02-28T00:34:31;0.90;99.90
62555;DHT22;48610;52.144;8.624;2023-02-28T00:37:31;1.00;99.90
62555;DHT22;48610;52.144;8.624;2023-02-28T00:40:32;1.20;99.90
62555;DHT22;48610;52.144;8.624;2023-02-28T00:43:38;1.10;99.90
62555;DHT22;48610;52.144;8.624;2023-02-28T00:46:39;0.80;99.90
62555;DHT22;48610;52.144;8.624;2023-02-28T00:49:39;0.90;99.90
62555;DHT22;48610;52.144;8.624;2023-02-28T00:52:40;0.80;99.90
62555;DHT22;48610;52.144;8.624;2023-02-28T00:55:40;0.60;99.90
62555;DHT22;48610;52.144;8.624;2023-02-28T00:58:41;0.60;99.90
62555;DHT22;48610;52.144;8.624;2023-02-28T01:01:43;0.50;99.90
62555;DHT22;48610;52.144;8.624;2023-02-28T01:04:43;0.40;99.90
62555;DHT22;48610;52.144;8.624;2023-02-28T01:07:44;0.50;99.90
62555;DHT22;48610;52.144;8.624;2023-02-28T01:10:45;0.50;99.90
62555;DHT22;48610;52.144;8.624;2023-02-28T01:13:46;0.70;99.90
62555;DHT22;48610;52.144;8.624;2023-02-28T01:16:46;0.70;99.90
62555;DHT22;48610;52.144;8.624;2023-02-28T01:19:47;0.80;99.90
62555;DHT22;48610;52.144;8.624;2023-02-28T01:22:47;0.80;99.90
62555;DHT22;48610;52.144;8.624;2023-02-28T01:25:48;0.80;99.90
62555;DHT22;48610;52.144;8.624;2023-02-28T01:28:50;0.60;99.90
62555;DHT22;48610;52.144;8.624;2023-02-28T01:31:51;0.60;99.90
62555;DHT22;48610;52.144;8.624;2023-02-28T01:34:52;0.50;99.90
62555;DHT22;48610;52.144;8.624;2023-02-28T01:37:52;0.60;99.90
62555;DHT22;48610;52.144;8.624;2023-02-28T01:40:53;0.30;99.90
62555;DHT22;48610;52.144;8.624;2023-02-28T01:44:04;0.30;99.90
62555;DHT22;48610;52.144;8.624;2023-02-28T01:47:05;0.20;99.90
62555;DHT22;48610;52.144;8.624;2023-02-28T01:50:09;0.40;99.90
62555;DHT22;48610;52.144;8.624;2023-02-28T01:53:18;0.30;99.90
62555;DHT22;48610;52.144;8.624;2023-02-28T01:56:24;0.30;99.90
62555;DHT22;48610;52.144;8.624;2023-02-28T01:59:43;0.40;99.90
62555;DHT22;48610;52.144;8.624;2023-02-28T02:02:55;0.40;99.90
62555;DHT22;48610;52.144;8.624;2023-02-28T02:05:56;0.40;99.90
62555;DHT22;48610;52.144;8.624;2023-02-28T02:08:56;0.50;99.90
62555;DHT22;48610;52.144;8.624;2023-02-28T02:11:57;0.50;99.90
62555;DHT22;48610;52.144;8.624;2023-02-28T02:15:16;0.40;99.90
62555;DHT22;48610;52.144;8.624;2023-02-28T02:25:45;0.30;99.90
62555;DHT22;48610;52.144;8.624;2023-02-28T02:28:56;0.20;99.90
62555;DHT22;48610;52.144;8.624;2023-02-28T02:32:32;0.30;99.90
62555;DHT22;48610;52.144;8.624;2023-02-28T02:42:01;0.10;99.90
62555;DHT22;48610;52.144;8.624;2023-02-28T02:45:10;0.10;99.90
62555;DHT22;48610;52.144;8.624;2023-02-28T02:48:15;0.20;99.90
62555;DHT22;48610;52.144;8.624;2023-02-28T02:51:19;0.40;99.90
62555;DHT22;48610;52.144;8.624;2023-02-28T02:54:24;0.10;99.90
62555;DHT22;48610;52.144;8.624;2023-02-28T02:57:40;-0.10;99.90
62555;DHT22;48610;52.144;8.624;2023-02-28T03:00:50;-0.20;99.90
62555;DHT22;48610;52.144;8.624;2023-02-28T03:04:02;-0.20;99.90
62555;DHT22;48610;52.144;8.624;2023-02-28T03:07:04;0.00;99.90
62555;DHT22;48610;52.144;8.624;2023-02-28T03:10:35;0.10;99.90
62555;DHT22;48610;52.144;8.624;2023-02-28T03:24:15;0.20;99.90
62555;DHT22;48610;52.144;8.624;2023-02-28T03:27:29;0.20;99.90
62555;DHT22;48610;52.144;8.624;2023-02-28T03:30:57;0.20;99.90
62555;DHT22;48610;52.144;8.624;2023-02-28T03:34:01;0.00;99.90
62555;DHT22;48610;52.144;8.624;2023-02-28T03:37:09;0.00;99.90
62555;DHT22;48610;52.144;8.624;2023-02-28T03:40:23;-0.10;99.90
62555;DHT22;48610;52.144;8.624;2023-02-28T03:43:28;-0.10;99.90
62555;DHT22;48610;52.144;8.624;2023-02-28T03:46:33;-0.10;99.90
62555;DHT22;48610;52.144;8.624;2023-02-28T03:49:40;-0.10;99.90
62555;DHT22;48610;52.144;8.624;2023-02-28T03:53:04;0.00;99.90
62555;DHT22;48610;52.144;8.624;2023-02-28T03:56:11;0.00;99.90
62555;DHT22;48610;52.144;8.624;2023-02-28T03:59:17;0.00;99.90
62555;DHT22;48610;52.144;8.624;2023-02-28T04:02:32;0.00;99.90
62555;DHT22;48610;52.144;8.624;2023-02-28T04:05:33;-0.20;99.90
62555;DHT22;48610;52.144;8.624;2023-02-28T04:08:45;-0.40;99.90
62555;DHT22;48610;52.144;8.624;2023-02-28T04:11:50;-0.60;99.90
62555;DHT22;48610;52.144;8.624;2023-02-28T04:14:52;-0.50;99.90
62555;DHT22;48610;52.144;8.624;2023-02-28T04:17:55;-0.40;99.90
62555;DHT22;48610;52.144;8.624;2023-02-28T04:21:00;-0.40;99.90
62555;DHT22;48610;52.144;8.624;2023-02-28T04:24:01;-0.30;99.90
62555;DHT22;48610;52.144;8.624;2023-02-28T04:27:02;-0.30;99.90
62555;DHT22;48610;52.144;8.624;2023-02-28T04:30:03;-0.40;99.90
62555;DHT22;48610;52.144;8.624;2023-02-28T04:33:03;-0.30;99.90
62555;DHT22;48610;52.144;8.624;2023-02-28T04:36:07;-0.30;99.90
62555;DHT22;48610;52.144;8.624;2023-02-28T04:39:08;-0.40;99.90
62555;DHT22;48610;52.144;8.624;2023-02-28T04:42:10;-0.50;99.90
62555;DHT22;48610;52.144;8.624;2023-02-28T04:45:11;-0.50;99.90
62555;DHT22;48610;52.144;8.624;2023-02-28T04:48:11;-0.60;99.90
62555;DHT22;48610;52.144;8.624;2023-02-28T04:51:13;-0.70;99.90
62555;DHT22;48610;52.144;8.624;2023-02-28T04:54:14;-0.70;99.90
62555;DHT22;48610;52.144;8.624;2023-02-28T04:57:16;-0.60;99.90
62555;DHT22;48610;52.144;8.624;2023-02-28T05:00:17;-0.70;99.90
62555;DHT22;48610;52.144;8.624;2023-02-28T05:03:18;-0.50;99.90
62555;DHT22;48610;52.144;8.624;2023-02-28T05:06:19;-0.70;99.90
62555;DHT22;48610;52.144;8.624;2023-02-28T05:09:20;-0.80;99.90
62555;DHT22;48610;52.144;8.624;2023-02-28T05:12:21;-0.90;99.90
62555;DHT22;48610;52.144;8.624;2023-02-28T05:15:22;-0.90;99.90
62555;DHT22;48610;52.144;8.624;2023-02-28T05:18:22;-1.00;99.90
62555;DHT22;48610;52.144;8.624;2023-02-28T05:22:10;-1.00;99.90
62555;DHT22;48610;52.144;8.624;2023-02-28T05:24:59;-1.10;99.90
62555;DHT22;48610;52.144;8.624;2023-02-28T05:28:00;-1.20;99.90
62555;DHT22;48610;52.144;8.624;2023-02-28T05:31:01;-1.30;99.90
62555;DHT22;48610;52.144;8.624;2023-02-28T05:34:01;-1.50;99.90
62555;DHT22;48610;52.144;8.624;2023-02-28T05:37:05;-1.40;99.90
62555;DHT22;48610;52.144;8.624;2023-02-28T05:40:08;-1.40;99.90
62555;DHT22;48610;52.144;8.624;2023-02-28T05:43:11;-1.30;99.90
62555;DHT22;48610;52.144;8.624;2023-02-28T05:46:12;-1.40;99.90
62555;DHT22;48610;52.144;8.624;2023-02-28T05:49:13;-1.40;99.90
62555;DHT22;48610;52.144;8.624;2023-02-28T05:52:14;-1.20;99.90
62555;DHT22;48610;52.144;8.624;2023-02-28T05:55:16;-1.20;99.90
62555;DHT22;48610;52.144;8.624;2023-02-28T05:58:16;-1.40;99.90
62555;DHT22;48610;52.144;8.624;2023-02-28T06:01:40;-1.50;99.90
62555;DHT22;48610;52.144;8.624;2023-02-28T06:04:41;-1.50;99.90
62555;DHT22;48610;52.144;8.624;2023-02-28T06:07:42;-1.50;99.90
62555;DHT22;48610;52.144;8.624;2023-02-28T06:10:43;-1.40;99.90
62555;DHT22;48610;52.144;8.624;2023-02-28T06:13:43;-1.40;99.90
62555;DHT22;48610;52.144;8.624;2023-02-28T06:16:44;-1.40;99.90
62555;DHT22;48610;52.144;8.624;2023-02-28T06:19:44;-1.30;99.90
62555;DHT22;48610;52.144;8.624;2023-02-28T06:22:45;-1.40;99.90
62555;DHT22;48610;52.144;8.624;2023-02-28T06:25:46;-1.50;99.90
62555;DHT22;48610;52.144;8.624;2023-02-28T06:28:47;-1.30;99.90
62555;DHT22;48610;52.144;8.624;2023-02-28T06:31:47;-1.30;99.90
62555;DHT22;48610;52.144;8.624;2023-02-28T06:34:48;-1.20;99.90
62555;DHT22;48610;52.144;8.624;2023-02-28T06:37:50;-1.30;99.90
62555;DHT22;48610;52.144;8.624;2023-02-28T06:40:55;-1.10;99.90
62555;DHT22;48610;52.144;8.624;2023-02-28T06:43:56;-1.00;99.90
62555;DHT22;48610;52.144;8.624;2023-02-28T06:46:57;-1.00;99.90
62555;DHT22;48610;52.144;8.624;2023-02-28T06:49:57;-0.90;99.90
62555;DHT22;48610;52.144;8.624;2023-02-28T06:52:58;-0.80;99.90
62555;DHT22;48610;52.144;8.624;2023-02-28T06:55:59;-0.60;99.90
62555;DHT22;48610;52.144;8.624;2023-02-28T06:58:59;-0.70;99.90
62555;DHT22;48610;52.144;8.624;2023-02-28T07:02:00;-0.70;99.90
62555;DHT22;48610;52.144;8.624;2023-02-28T07:05:02;-0.70;99.90
62555;DHT22;48610;52.144;8.624;2023-02-28T07:08:08;-0.50;99.90
62555;DHT22;48610;52.144;8.624;2023-02-28T07:11:12;-0.20;99.90
62555;DHT22;48610;52.144;8.624;2023-02-28T07:14:13;0.00;99.90
62555;DHT22;48610;52.144;8.624;2023-02-28T07:17:13;-0.10;99.90
62555;DHT22;48610;52.144;8.624;2023-02-28T07:20:14;-0.40;99.90
62555;DHT22;48610;52.144;8.624;2023-02-28T07:23:14;-0.50;99.90
62555;DHT22;48610;52.144;8.624;2023-02-28T07:26:16;-0.60;99.90
62555;DHT22;48610;52.144;8.624;2023-02-28T07:29:17;-0.80;99.90
62555;DHT22;48610;52.144;8.624;2023-02-28T07:32:18;-0.50;99.90
62555;DHT22;48610;52.144;8.624;2023-02-28T07:35:19;-0.40;99.90
62555;DHT22;48610;52.144;8.624;2023-02-28T07:38:20;-0.30;99.90
62555;DHT22;48610;52.144;8.624;2023-02-28T07:41:21;-0.30;99.90
62555;DHT22;48610;52.144;8.624;2023-02-28T07:44:22;-0.20;99.90
62555;DHT22;48610;52.144;8.624;2023-02-28T07:47:22;0.30;99.90
62555;DHT22;48610;52.144;8.624;2023-02-28T07:50:23;1.00;99.90
62555;DHT22;48610;52.144;8.624;2023-02-28T07:53:24;1.80;99.90
62555;DHT22;48610;52.144;8.624;2023-02-28T07:56:25;2.30;99.90
62555;DHT22;48610;52.144;8.624;2023-02-28T07:59:26;2.80;99.90
62555;DHT22;48610;52.144;8.624;2023-02-28T08:02:26;2.90;99.90
62555;DHT22;48610;52.144;8.624;2023-02-28T08:05:27;3.20;99.90
62555;DHT22;48610;52.144;8.624;2023-02-28T08:08:27;3.90;99.90
62555;DHT22;48610;52.144;8.624;2023-02-28T08:11:31;3.60;99.90
62555;DHT22;48610;52.144;8.624;2023-02-28T08:14:32;3.60;99.90
62555;DHT22;48610;52.144;8.624;2023-02-28T08:17:32;3.50;99.90
62555;DHT22;48610;52.144;8.624;2023-02-28T08:20:33;3.30;99.90
62555;DHT22;48610;52.144;8.624;2023-02-28T08:23:33;3.10;99.90
62555;DHT22;48610;52.144;8.624;2023-02-28T08:26:34;3.00;99.90
62555;DHT22;48610;52.144;8.624;2023-02-28T08:29:37;3.50;99.90
62555;DHT22;48610;52.144;8.624;2023-02-28T08:32:38;3.80;99.90
62555;DHT22;48610;52.144;8.624;2023-02-28T08:35:39;4.00;99.90
62555;DHT22;48610;52.144;8.624;2023-02-28T08:38:39;4.20;99.90
62555;DHT22;48610;52.144;8.624;2023-02-28T08:41:42;4.40;99.90
62555;DHT22;48610;52.144;8.624;2023-02-28T08:44:42;3.90;99.90
62555;DHT22;48610;52.144;8.624;2023-02-28T08:47:43;4.50;99.90
62555;DHT22;48610;52.144;8.624;2023-02-28T08:50:43;4.60;99.90
62555;DHT22;48610;52.144;8.624;2023-02-28T08:53:44;4.00;99.90
62555;DHT22;48610;52.144;8.624;2023-02-28T08:56:46;4.20;99.90
62555;DHT22;48610;52.144;8.624;2023-02-28T08:59:47;4.60;99.90
62555;DHT22;48610;52.144;8.624;2023-02-28T09:02:48;4.80;99.90
62555;DHT22;48610;52.144;8.624;2023-02-28T09:05:59;5.00;99.90
62555;DHT22;48610;52.144;8.624;2023-02-28T09:09:00;5.20;99.90
62555;DHT22;48610;52.144;8.624;2023-02-28T09:12:02;5.50;99.90
62555;DHT22;48610;52.144;8.624;2023-02-28T09:15:03;6.00;99.90
62555;DHT22;48610;52.144;8.624;2023-02-28T09:18:04;6.30;99.90
62555;DHT22;48610;52.144;8.624;2023-02-28T09:21:12;6.40;99.30
62555;DHT22;48610;52.144;8.624;2023-02-28T09:24:14;6.50;98.70
62555;DHT22;48610;52.144;8.624;2023-02-28T09:27:15;6.30;98.20
62555;DHT22;48610;52.144;8.624;2023-02-28T09:30:16;6.40;98.00
62555;DHT22;48610;52.144;8.624;2023-02-28T09:33:17;6.30;96.80
62555;DHT22;48610;52.144;8.624;2023-02-28T09:36:22;6.30;96.30
62555;DHT22;48610;52.144;8.624;2023-02-28T09:39:23;6.10;96.00
62555;DHT22;48610;52.144;8.624;2023-02-28T09:42:30;6.30;96.70
62555;DHT22;48610;52.144;8.624;2023-02-28T09:45:40;6.60;96.70
62555;DHT22;48610;52.144;8.624;2023-02-28T09:48:45;6.70;95.80
62555;DHT22;48610;52.144;8.624;2023-02-28T09:52:03;6.80;96.10
62555;DHT22;48610;52.144;8.624;2023-02-28T10:01:57;7.40;92.60
62555;DHT22;48610;52.144;8.624;2023-02-28T10:05:13;7.40;93.10
62555;DHT22;48610;52.144;8.624;2023-02-28T10:08:21;7.70;92.80
62555;DHT22;48610;52.144;8.624;2023-02-28T10:11:26;7.60;93.80
62555;DHT22;48610;52.144;8.624;2023-02-28T10:14:31;7.50;91.90
62555;DHT22;48610;52.144;8.624;2023-02-28T10:17:40;7.70;93.00
62555;DHT22;48610;52.144;8.624;2023-02-28T10:20:42;7.90;92.50
62555;DHT22;48610;52.144;8.624;2023-02-28T10:23:43;8.40;93.10
62555;DHT22;48610;52.144;8.624;2023-02-28T10:26:48;8.80;89.10
62555;DHT22;48610;52.144;8.624;2023-02-28T10:29:50;8.50;92.50
62555;DHT22;48610;52.144;8.624;2023-02-28T10:32:52;8.70;88.00
62555;DHT22;48610;52.144;8.624;2023-02-28T10:35:54;8.90;86.00
62555;DHT22;48610;52.144;8.624;2023-02-28T10:38:55;8.80;83.20
62555;DHT22;48610;52.144;8.624;2023-02-28T10:41:55;9.00;87.90
62555;DHT22;48610;52.144;8.624;2023-02-28T10:51:16;9.30;80.60
62555;DHT22;48610;52.144;8.624;2023-02-28T10:54:29;9.80;81.30
62555;DHT22;48610;52.144;8.624;2023-02-28T10:57:31;9.80;81.80
62555;DHT22;48610;52.144;8.624;2023-02-28T11:00:35;9.00;83.20
62555;DHT22;48610;52.144;8.624;2023-02-28T11:03:36;8.50;83.80
62555;DHT22;48610;52.144;8.624;2023-02-28T11:06:36;8.00;86.00
62555;DHT22;48610;52.144;8.624;2023-02-28T11:09:40;7.70;85.30
62555;DHT22;48610;52.144;8.624;2023-02-28T11:12:44;7.90;88.30
62555;DHT22;48610;52.144;8.624;2023-02-28T11:15:57;7.70;85.20
62555;DHT22;48610;52.144;8.624;2023-02-28T11:18:58;6.80;82.40
62555;DHT22;48610;52.144;8.624;2023-02-28T11:22:04;7.70;89.40
62555;DHT22;48610;52.144;8.624;2023-02-28T11:25:19;8.60;82.70
62555;DHT22;48610;52.144;8.624;2023-02-28T11:28:33;8.70;81.20
62555;DHT22;48610;52.144;8.624;2023-02-28T11:31:33;8.30;83.10
62555;DHT22;48610;52.144;8.624;2023-02-28T11:34:37;7.90;84.70
62555;DHT22;48610;52.144;8.624;2023-02-28T11:37:38;7.80;89.60
62555;DHT22;48610;52.144;8.624;2023-02-28T11:40:48;8.10;86.60
62555;DHT22;48610;52.144;8.624;2023-02-28T11:47:38;9.00;90.00
62555;DHT22;48610;52.144;8.624;2023-02-28T11:51:04;8.20;83.30
62555;DHT22;48610;52.144;8.624;2023-02-28T11:57:33;8.30;85.40
62555;DHT22;48610;52.144;8.624;2023-02-28T12:04:17;9.40;83.30
62555;DHT22;48610;52.144;8.624;2023-02-28T12:10:42;9.70;81.40
62555;DHT22;48610;52.144;8.624;2023-02-28T12:17:42;9.90;83.70
62555;DHT22;48610;52.144;8.624;2023-02-28T12:27:02;9.60;80.80
62555;DHT22;48610;52.144;8.624;2023-02-28T12:30:21;9.80;76.40
62555;DHT22;48610;52.144;8.624;2023-02-28T12:33:24;10.00;78.30
62555;DHT22;48610;52.144;8.624;2023-02-28T12:36:27;9.50;80.10
62555;DHT22;48610;52.144;8.624;2023-02-28T12:39:33;9.60;76.30
62555;DHT22;48610;52.144;8.624;2023-02-28T12:42:41;9.10;81.20
62555;DHT22;48610;52.144;8.624;2023-02-28T12:49:02;9.20;83.10
62555;DHT22;48610;52.144;8.624;2023-02-28T12:52:05;9.50;77.40
62555;DHT22;48610;52.144;8.624;2023-02-28T12:55:40;9.80;80.50
62555;DHT22;48610;52.144;8.624;2023-02-28T12:58:47;8.70;82.30
62555;DHT22;48610;52.144;8.624;2023-02-28T13:02:09;8.60;83.10
62555;DHT22;48610;52.144;8.624;2023-02-28T13:09:02;8.40;84.80
62555;DHT22;48610;52.144;8.624;2023-02-28T13:12:15;8.70;82.90
62555;DHT22;48610;52.144;8.624;2023-02-28T13:15:23;8.50;81.10
62555;DHT22;48610;52.144;8.624;2023-02-28T13:18:32;8.40;85.40
62555;DHT22;48610;52.144;8.624;2023-02-28T13:21:42;8.20;80.90
62555;DHT22;48610;52.144;8.624;2023-02-28T13:24:45;8.50;87.20
62555;DHT22;48610;52.144;8.624;2023-02-28T13:27:46;8.90;83.20
62555;DHT22;48610;52.144;8.624;2023-02-28T13:40:31;9.70;82.60
62555;DHT22;48610;52.144;8.624;2023-02-28T13:53:54;9.00;82.60
62555;DHT22;48610;52.144;8.624;2023-02-28T13:57:15;9.30;79.40
62555;DHT22;48610;52.144;8.624;2023-02-28T14:00:42;9.30;79.90
62555;DHT22;48610;52.144;8.624;2023-02-28T14:10:51;9.90;77.60
62555;DHT22;48610;52.144;8.624;2023-02-28T14:14:03;9.60;79.30
62555;DHT22;48610;52.144;8.624;2023-02-28T14:17:12;9.60;80.20
62555;DHT22;48610;52.144;8.624;2023-02-28T14:20:17;9.50;79.40
62555;DHT22;48610;52.144;8.624;2023-02-28T14:27:07;9.40;81.10
62555;DHT22;48610;52.144;8.624;2023-02-28T14:33:27;8.40;83.80
62555;DHT22;48610;52.144;8.624;2023-02-28T14:36:42;8.00;88.00
62555;DHT22;48610;52.144;8.624;2023-02-28T14:39:43;7.90;82.70
62555;DHT22;48610;52.144;8.624;2023-02-28T14:42:55;7.60;82.10
62555;DHT22;48610;52.144;8.624;2023-02-28T14:45:59;7.70;81.60
62555;DHT22;48610;52.144;8.624;2023-02-28T14:49:01;7.60;85.50
62555;DHT22;48610;52.144;8.624;2023-02-28T14:52:20;7.80;83.70
62555;DHT22;48610;52.144;8.624;2023-02-28T14:55:31;8.20;83.00
62555;DHT22;48610;52.144;8.624;2023-02-28T14:58:33;8.50;81.80
62555;DHT22;48610;52.144;8.624;2023-02-28T15:01:34;8.50;86.50
62555;DHT22;48610;52.144;8.624;2023-02-28T15:04:35;8.60;82.90
62555;DHT22;48610;52.144;8.624;2023-02-28T15:07:36;8.50;83.20
62555;DHT22;48610;52.144;8.624;2023-02-28T15:10:37;8.20;82.50
62555;DHT22;48610;52.144;8.624;2023-02-28T15:13:56;8.00;83.90
62555;DHT22;48610;52.144;8.624;2023-02-28T15:17:03;8.00;87.30
62555;DHT22;48610;52.144;8.624;2023-02-28T15:20:11;7.40;90.40
62555;DHT22;48610;52.144;8.624;2023-02-28T15:23:14;7.80;89.40
62555;DHT22;48610;52.144;8.624;2023-02-28T15:26:18;7.40;90.70
62555;DHT22;48610;52.144;8.624;2023-02-28T15:29:22;7.50;90.20
62555;DHT22;48610;52.144;8.624;2023-02-28T15:32:37;7.90;88.60
62555;DHT22;48610;52.144;8.624;2023-02-28T15:35:39;8.00;85.70
62555;DHT22;48610;52.144;8.624;2023-02-28T15:38:41;8.10;86.80
62555;DHT22;48610;52.144;8.624;2023-02-28T15:41:42;7.90;85.50
62555;DHT22;48610;52.144;8.624;2023-02-28T15:44:43;7.70;87.50
62555;DHT22;48610;52.144;8.624;2023-02-28T15:47:45;7.80;87.80
62555;DHT22;48610;52.144;8.624;2023-02-28T15:50:49;7.70;86.30
62555;DHT22;48610;52.144;8.624;2023-02-28T15:53:56;7.30;91.40
62555;DHT22;48610;52.144;8.624;2023-02-28T15:57:00;7.30;90.00
62555;DHT22;48610;52.144;8.624;2023-02-28T16:00:03;7.40;89.40
62555;DHT22;48610;52.144;8.624;2023-02-28T16:03:26;7.30;88.70
62555;DHT22;48610;52.144;8.624;2023-02-28T16:06:46;7.30;91.10
62555;DHT22;48610;52.144;8.624;2023-02-28T16:09:47;7.40;90.20
62555;DHT22;48610;52.144;8.624;2023-02-28T16:12:48;6.90;90.70
62555;DHT22;48610;52.144;8.624;2023-02-28T16:15:49;6.40;92.40
62555;DHT22;48610;52.144;8.624;2023-02-28T16:18:52;6.20;94.20
62555;DHT22;48610;52.144;8.624;2023-02-28T16:21:53;6.40;94.10
62555;DHT22;48610;52.144;8.624;2023-02-28T16:24:53;6.70;92.80
62555;DHT22;48610;52.144;8.624;2023-02-28T16:27:54;6.40;92.00
62555;DHT22;48610;52.144;8.624;2023-02-28T16:30:55;6.50;92.70
62555;DHT22;48610;52.144;8.624;2023-02-28T16:33:56;6.60;92.20
62555;DHT22;48610;52.144;8.624;2023-02-28T16:36:57;6.70;92.00
62555;DHT22;48610;52.144;8.624;2023-02-28T16:39:58;6.70;92.10
62555;DHT22;48610;52.144;8.624;2023-02-28T16:43:00;6.50;92.50
62555;DHT22;48610;52.144;8.624;2023-02-28T16:46:04;6.60;92.60
62555;DHT22;48610;52.144;8.624;2023-02-28T16:49:11;6.40;93.00
62555;DHT22;48610;52.144;8.624;2023-02-28T16:52:12;6.40;93.10
62555;DHT22;48610;52.144;8.624;2023-02-28T16:55:12;6.50;92.90
62555;DHT22;48610;52.144;8.624;2023-02-28T16:58:15;6.60;92.10
62555;DHT22;48610;52.144;8.624;2023-02-28T17:01:17;6.40;92.90
62555;DHT22;48610;52.144;8.624;2023-02-28T17:04:17;6.20;93.30
62555;DHT22;48610;52.144;8.624;2023-02-28T17:07:18;6.20;93.80
62555;DHT22;48610;52.144;8.624;2023-02-28T17:10:22;6.20;93.60
62555;DHT22;48610;52.144;8.624;2023-02-28T17:13:22;6.20;93.80
62555;DHT22;48610;52.144;8.624;2023-02-28T17:16:27;6.20;93.60
62555;DHT22;48610;52.144;8.624;2023-02-28T17:19:28;6.00;94.10
62555;DHT22;48610;52.144;8.624;2023-02-28T17:22:29;5.80;94.90
62555;DHT22;48610;52.144;8.624;2023-02-28T17:25:30;5.70;95.30
62555;DHT22;48610;52.144;8.624;2023-02-28T17:28:30;5.70;95.40
62555;DHT22;48610;52.144;8.624;2023-02-28T17:31:31;5.80;95.20
62555;DHT22;48610;52.144;8.624;2023-02-28T17:34:33;6.00;95.00
62555;DHT22;48610;52.144;8.624;2023-02-28T17:37:33;5.90;94.60
62555;DHT22;48610;52.144;8.624;2023-02-28T17:40:34;5.90;95.30
62555;DHT22;48610;52.144;8.624;2023-02-28T17:43:34;5.90;94.90
62555;DHT22;48610;52.144;8.624;2023-02-28T17:46:36;5.80;95.20
62555;DHT22;48610;52.144;8.624;2023-02-28T17:49:36;5.90;95.00
62555;DHT22;48610;52.144;8.624;2023-02-28T17:52:37;5.60;95.40
62555;DHT22;48610;52.144;8.624;2023-02-28T17:55:38;5.60;95.60
62555;DHT22;48610;52.144;8.624;2023-02-28T17:58:39;5.60;95.60
62555;DHT22;48610;52.144;8.624;2023-02-28T18:01:39;5.70;95.50
62555;DHT22;48610;52.144;8.624;2023-02-28T18:04:40;5.60;95.30
62555;DHT22;48610;52.144;8.624;2023-02-28T18:07:41;5.60;94.70
62555;DHT22;48610;52.144;8.624;2023-02-28T18:10:41;5.50;96.10
62555;DHT22;48610;52.144;8.624;2023-02-28T18:13:50;5.40;96.40
62555;DHT22;48610;52.144;8.624;2023-02-28T18:16:52;5.30;96.90
62555;DHT22;48610;52.144;8.624;2023-02-28T18:19:56;5.40;96.60
62555;DHT22;48610;52.144;8.624;2023-02-28T18:22:57;5.20;96.70
62555;DHT22;48610;52.144;8.624;2023-02-28T18:25:57;5.30;96.50
62555;DHT22;48610;52.144;8.624;2023-02-28T18:29:01;5.20;96.60
62555;DHT22;48610;52.144;8.624;2023-02-28T18:32:04;5.00;97.00
62555;DHT22;48610;52.144;8.624;2023-02-28T18:35:05;5.00;97.30
62555;DHT22;48610;52.144;8.624;2023-02-28T18:38:17;4.70;97.90
62555;DHT22;48610;52.144;8.624;2023-02-28T18:41:21;4.60;98.40
62555;DHT22;48610;52.144;8.624;2023-02-28T18:44:22;4.50;98.80
62555;DHT22;48610;52.144;8.624;2023-02-28T18:47:23;4.20;99.30
62555;DHT22;48610;52.144;8.624;2023-02-28T18:50:23;4.10;99.90
62555;DHT22;48610;52.144;8.624;2023-02-28T18:53:24;4.00;99.90
62555;DHT22;48610;52.144;8.624;2023-02-28T18:56:25;4.20;99.90
62555;DHT22;48610;52.144;8.624;2023-02-28T18:59:26;4.20;99.90
62555;DHT22;48610;52.144;8.624;2023-02-28T19:02:27;4.40;99.90
62555;DHT22;48610;52.144;8.624;2023-02-28T19:05:29;4.60;99.30
62555;DHT22;48610;52.144;8.624;2023-02-28T19:08:33;4.60;99.00
62555;DHT22;48610;52.144;8.624;2023-02-28T19:11:34;4.60;98.50
62555;DHT22;48610;52.144;8.624;2023-02-28T19:14:34;4.70;98.50
62555;DHT22;48610;52.144;8.624;2023-02-28T19:17:35;4.60;98.30
62555;DHT22;48610;52.144;8.624;2023-02-28T19:20:36;4.30;99.10
62555;DHT22;48610;52.144;8.624;2023-02-28T19:23:38;3.80;99.90
62555;DHT22;48610;52.144;8.624;2023-02-28T19:26:39;3.30;99.90
62555;DHT22;48610;52.144;8.624;2023-02-28T19:29:39;3.30;99.90
62555;DHT22;48610;52.144;8.624;2023-02-28T19:32:40;3.20;99.90
62555;DHT22;48610;52.144;8.624;2023-02-28T19:35:41;3.30;99.90
62555;DHT22;48610;52.144;8.624;2023-02-28T19:38:42;3.30;99.90
62555;DHT22;48610;52.144;8.624;2023-02-28T19:41:43;3.50;99.90
62555;DHT22;48610;52.144;8.624;2023-02-28T19:44:44;3.60;99.90
62555;DHT22;48610;52.144;8.624;2023-02-28T19:47:45;3.50;99.90
62555;DHT22;48610;52.144;8.624;2023-02-28T19:50:50;3.70;99.90
62555;DHT22;48610;52.144;8.624;2023-02-28T19:54:25;3.60;99.90
62555;DHT22;48610;52.144;8.624;2023-02-28T19:57:26;3.40;99.90
62555;DHT22;48610;52.144;8.624;2023-02-28T20:00:27;3.40;99.90
62555;DHT22;48610;52.144;8.624;2023-02-28T20:03:28;3.30;99.90
62555;DHT22;48610;52.144;8.624;2023-02-28T20:06:32;3.30;99.90
62555;DHT22;48610;52.144;8.624;2023-02-28T20:09:33;3.60;99.90
62555;DHT22;48610;52.144;8.624;2023-02-28T20:12:34;3.60;99.90
62555;DHT22;48610;52.144;8.624;2023-02-28T20:15:36;3.30;99.90
62555;DHT22;48610;52.144;8.624;2023-02-28T20:18:38;3.20;99.90
62555;DHT22;48610;52.144;8.624;2023-02-28T20:21:38;3.00;99.90
62555;DHT22;48610;52.144;8.624;2023-02-28T20:24:41;2.90;99.90
62555;DHT22;48610;52.144;8.624;2023-02-28T20:27:41;2.70;99.90
62555;DHT22;48610;52.144;8.624;2023-02-28T20:30:42;2.50;99.90
62555;DHT22;48610;52.144;8.624;2023-02-28T20:33:43;2.20;99.90
62555;DHT22;48610;52.144;8.624;2023-02-28T20:36:44;2.40;99.90
62555;DHT22;48610;52.144;8.624;2023-02-28T20:39:44;2.40;99.90
62555;DHT22;48610;52.144;8.624;2023-02-28T20:42:45;2.70;99.90
62555;DHT22;48610;52.144;8.624;2023-02-28T20:45:52;2.50;99.90
62555;DHT22;48610;52.144;8.624;2023-02-28T20:48:53;2.00;99.90
62555;DHT22;48610;52.144;8.624;2023-02-28T20:51:54;2.10;99.90
62555;DHT22;48610;52.144;8.624;2023-02-28T20:54:54;1.80;99.90
62555;DHT22;48610;52.144;8.624;2023-02-28T20:57:55;2.00;99.90
62555;DHT22;48610;52.144;8.624;2023-02-28T21:01:14;2.10;99.90
62555;DHT22;48610;52.144;8.624;2023-02-28T21:04:15;2.10;99.90
62555;DHT22;48610;52.144;8.624;2023-02-28T21:07:16;2.20;99.90
62555;DHT22;48610;52.144;8.624;2023-02-28T21:10:16;2.10;99.90
62555;DHT22;48610;52.144;8.624;2023-02-28T21:13:17;2.10;99.90
62555;DHT22;48610;52.144;8.624;2023-02-28T21:16:19;2.20;99.90
62555;DHT22;48610;52.144;8.624;2023-02-28T21:19:21;2.30;99.90